sensor_id;sensor_type;location;lat;lon;timestamp;pressure;altitude;pressure_sealevel;temperature;humidity
20156;BME280;10238;49.556;10.956;2023-04-30T00:00:24;98621.63;;;10.79;100.00
20156;BME280;10238;49.556;10.956;2023-04-30T00:03:12;98625.28;;;10.78;100.00
20156;BME280;10238;49.556;10.956;2023-04-30T00:06:00;98626.44;;;10.76;100.00
20156;BME280;10238;49.556;10.956;2023-04-30T00:08:48;98622.22;;;10.73;100.00
20156;BME280;10238;49.556;10.956;2023-04-30T00:11:38;98630.19;;;10.73;100.00
20156;BME280;10238;49.556;10.956;2023-04-30T00:14:25;98634.56;;;10.74;100.00
20156;BME280;10238;49.556;10.956;2023-04-30T00:17:13;98633.84;;;10.72;100.00
20156;BME280;10238;49.556;10.956;2023-04-30T00:20:02;98635.00;;;10.70;100.00
20156;BME280;10238;49.556;10.956;2023-04-30T00:22:49;98636.81;;;10.69;100.00
20156;BME280;10238;49.556;10.956;2023-04-30T00:25:37;98636.81;;;10.69;100.00
20156;BME280;10238;49.556;10.956;2023-04-30T00:28:27;98638.47;;;10.70;100.00
20156;BME280;10238;49.556;10.956;2023-04-30T00:31:15;98640.63;;;10.67;100.00
20156;BME280;10238;49.556;10.956;2023-04-30T00:34:03;98644.38;;;10.64;100.00
20156;BME280;10238;49.556;10.956;2023-04-30T00:36:51;98646.38;;;10.62;100.00
20156;BME280;10238;49.556;10.956;2023-04-30T00:39:39;98645.66;;;10.60;100.00
20156;BME280;10238;49.556;10.956;2023-04-30T00:42:27;98649.31;;;10.59;100.00
20156;BME280;10238;49.556;10.956;2023-04-30T00:45:17;98653.63;;;10.60;100.00
20156;BME280;10238;49.556;10.956;2023-04-30T00:48:07;98657.59;;;10.56;100.00
20156;BME280;10238;49.556;10.956;2023-04-30T00:50:55;98654.22;;;10.54;100.00
20156;BME280;10238;49.556;10.956;2023-04-30T00:53:43;98657.03;;;10.53;100.00
20156;BME280;10238;49.556;10.956;2023-04-30T00:56:31;98654.53;;;10.51;100.00
20156;BME280;10238;49.556;10.956;2023-04-30T00:59:19;98658.16;;;10.50;100.00
20156;BME280;10238;49.556;10.956;2023-04-30T01:02:09;98655.38;;;10.52;100.00
20156;BME280;10238;49.556;10.956;2023-04-30T01:04:57;98661.81;;;10.49;100.00
20156;BME280;10238;49.556;10.956;2023-04-30T01:07:45;98654.81;;;10.48;100.00
20156;BME280;10238;49.556;10.956;2023-04-30T01:10:40;98663.63;;;10.49;100.00
20156;BME280;10238;49.556;10.956;2023-04-30T01:13:31;98662.13;;;10.46;100.00
20156;BME280;10238;49.556;10.956;2023-04-30T01:16:24;98667.72;;;10.43;100.00
20156;BME280;10238;49.556;10.956;2023-04-30T01:19:28;98669.69;;;10.41;100.00
20156;BME280;10238;49.556;10.956;2023-04-30T01:22:31;98664.66;;;10.38;100.00
20156;BME280;10238;49.556;10.956;2023-04-30T01:25:41;98660.31;;;10.37;100.00
20156;BME280;10238;49.556;10.956;2023-04-30T01:28:35;98657.97;;;10.34;100.00
20156;BME280;10238;49.556;10.956;2023-04-30T01:31:27;98655.31;;;10.34;100.00
20156;BME280;10238;49.556;10.956;2023-04-30T01:34:15;98654.59;;;10.32;100.00
20156;BME280;10238;49.556;10.956;2023-04-30T01:37:12;98653.94;;;10.30;100.00
20156;BME280;10238;49.556;10.956;2023-04-30T01:40:13;98658.53;;;10.28;100.00
20156;BME280;10238;49.556;10.956;2023-04-30T01:43:15;98663.47;;;10.23;100.00
20156;BME280;10238;49.556;10.956;2023-04-30T01:46:13;98674.25;;;10.22;100.00
20156;BME280;10238;49.556;10.956;2023-04-30T01:49:14;98669.75;;;10.22;100.00
20156;BME280;10238;49.556;10.956;2023-04-30T01:52:10;98675.06;;;10.22;100.00
20156;BME280;10238;49.556;10.956;2023-04-30T01:55:07;98673.38;;;10.21;100.00
20156;BME280;10238;49.556;10.956;2023-04-30T01:57:57;98670.88;;;10.20;100.00
20156;BME280;10238;49.556;10.956;2023-04-30T02:00:46;98678.00;;;10.19;100.00
20156;BME280;10238;49.556;10.956;2023-04-30T02:03:35;98685.16;;;10.19;100.00
20156;BME280;10238;49.556;10.956;2023-04-30T02:06:25;98688.78;;;10.18;100.00
20156;BME280;10238;49.556;10.956;2023-04-30T02:09:14;98689.91;;;10.15;100.00
20156;BME280;10238;49.556;10.956;2023-04-30T02:12:02;98686.41;;;10.15;100.00
20156;BME280;10238;49.556;10.956;2023-04-30T02:14:51;98684.03;;;10.12;100.00
20156;BME280;10238;49.556;10.956;2023-04-30T02:17:39;98694.78;;;10.10;100.00
20156;BME280;10238;49.556;10.956;2023-04-30T02:20:29;98695.78;;;10.09;100.00
20156;BME280;10238;49.556;10.956;2023-04-30T02:23:17;98699.44;;;10.08;100.00
20156;BME280;10238;49.556;10.956;2023-04-30T02:26:05;98703.91;;;10.08;100.00
20156;BME280;10238;49.556;10.956;2023-04-30T02:28:53;98697.78;;;10.07;100.00
20156;BME280;10238;49.556;10.956;2023-04-30T02:31:41;98704.03;;;10.06;100.00
20156;BME280;10238;49.556;10.956;2023-04-30T02:34:29;98702.34;;;10.05;100.00
20156;BME280;10238;49.556;10.956;2023-04-30T02:37:19;98701.63;;;10.03;100.00
20156;BME280;10238;49.556;10.956;2023-04-30T02:40:08;98701.63;;;10.03;100.00
20156;BME280;10238;49.556;10.956;2023-04-30T02:42:56;98703.63;;;10.01;100.00
20156;BME280;10238;49.556;10.956;2023-04-30T02:45:44;98698.31;;;10.01;100.00
20156;BME280;10238;49.556;10.956;2023-04-30T02:48:32;98701.91;;;10.00;100.00
20156;BME280;10238;49.556;10.956;2023-04-30T02:51:20;98700.25;;;9.99;100.00
20156;BME280;10238;49.556;10.956;2023-04-30T02:54:10;98702.91;;;9.99;100.00
20156;BME280;10238;49.556;10.956;2023-04-30T02:56:57;98700.25;;;9.99;100.00
20156;BME280;10238;49.556;10.956;2023-04-30T02:59:46;98702.91;;;9.99;100.00
20156;BME280;10238;49.556;10.956;2023-04-30T03:02:34;98700.25;;;9.99;100.00
20156;BME280;10238;49.556;10.956;2023-04-30T03:05:22;98700.53;;;9.96;100.00
20156;BME280;10238;49.556;10.956;2023-04-30T03:08:10;98707.50;;;9.97;100.00
20156;BME280;10238;49.556;10.956;2023-04-30T03:11:00;98702.47;;;9.94;100.00
20156;BME280;10238;49.556;10.956;2023-04-30T03:13:48;98707.13;;;9.92;100.00
20156;BME280;10238;49.556;10.956;2023-04-30T03:16:37;98712.56;;;9.91;100.00
20156;BME280;10238;49.556;10.956;2023-04-30T03:19:25;98707.41;;;9.89;100.00
20156;BME280;10238;49.556;10.956;2023-04-30T03:22:13;98702.38;;;9.86;100.00
20156;BME280;10238;49.556;10.956;2023-04-30T03:25:02;98707.81;;;9.85;100.00
20156;BME280;10238;49.556;10.956;2023-04-30T03:27:51;98704.31;;;9.84;100.00
20156;BME280;10238;49.556;10.956;2023-04-30T03:30:39;98702.78;;;9.82;100.00
20156;BME280;10238;49.556;10.956;2023-04-30T03:33:27;98696.63;;;9.81;100.00
20156;BME280;10238;49.556;10.956;2023-04-30T03:36:15;98694.97;;;9.80;100.00
20156;BME280;10238;49.556;10.956;2023-04-30T03:39:04;98691.59;;;9.78;100.00
20156;BME280;10238;49.556;10.956;2023-04-30T03:41:51;98698.91;;;9.76;100.00
20156;BME280;10238;49.556;10.956;2023-04-30T03:44:41;98695.53;;;9.74;100.00
20156;BME280;10238;49.556;10.956;2023-04-30T03:47:29;98701.53;;;9.76;100.00
20156;BME280;10238;49.556;10.956;2023-04-30T03:50:17;98696.38;;;9.75;100.00
20156;BME280;10238;49.556;10.956;2023-04-30T03:53:05;98696.53;;;9.73;100.00
20156;BME280;10238;49.556;10.956;2023-04-30T03:55:53;98701.13;;;9.71;100.00
20156;BME280;10238;49.556;10.956;2023-04-30T03:58:42;98699.47;;;9.70;100.00
20156;BME280;10238;49.556;10.956;2023-04-30T04:01:31;98697.78;;;9.69;100.00
20156;BME280;10238;49.556;10.956;2023-04-30T04:04:19;98696.09;;;9.68;100.00
20156;BME280;10238;49.556;10.956;2023-04-30T04:07:07;98706.72;;;9.68;100.00
20156;BME280;10238;49.556;10.956;2023-04-30T04:09:57;98699.03;;;9.65;100.00
20156;BME280;10238;49.556;10.956;2023-04-30T04:12:45;98703.66;;;9.63;100.00
20156;BME280;10238;49.556;10.956;2023-04-30T04:15:33;98707.97;;;9.64;100.00
20156;BME280;10238;49.556;10.956;2023-04-30T04:18:23;98710.78;;;9.63;100.00
20156;BME280;10238;49.556;10.956;2023-04-30T04:21:10;98718.72;;;9.63;100.00
20156;BME280;10238;49.556;10.956;2023-04-30T04:23:58;98708.25;;;9.61;100.00
20156;BME280;10238;49.556;10.956;2023-04-30T04:26:51;98713.56;;;9.61;100.00
20156;BME280;10238;49.556;10.956;2023-04-30T04:29:39;98712.84;;;9.59;100.00
20156;BME280;10238;49.556;10.956;2023-04-30T04:32:26;98717.34;;;9.59;100.00
20156;BME280;10238;49.556;10.956;2023-04-30T04:35:17;98715.78;;;9.56;100.00
20156;BME280;10238;49.556;10.956;2023-04-30T04:38:06;98711.59;;;9.54;100.00
20156;BME280;10238;49.556;10.956;2023-04-30T04:40:55;98716.09;;;9.53;100.00
20156;BME280;10238;49.556;10.956;2023-04-30T04:43:43;98714.41;;;9.52;100.00
20156;BME280;10238;49.556;10.956;2023-04-30T04:46:31;98724.72;;;9.55;100.00
20156;BME280;10238;49.556;10.956;2023-04-30T04:49:20;98725.72;;;9.54;100.00
20156;BME280;10238;49.556;10.956;2023-04-30T04:52:09;98715.94;;;9.55;100.00
20156;BME280;10238;49.556;10.956;2023-04-30T04:54:57;98722.94;;;9.56;100.00
20156;BME280;10238;49.556;10.956;2023-04-30T04:57:45;98723.75;;;9.56;100.00
20156;BME280;10238;49.556;10.956;2023-04-30T05:00:33;98716.50;;;9.58;100.00
20156;BME280;10238;49.556;10.956;2023-04-30T05:03:21;98721.66;;;9.60;100.00
20156;BME280;10238;49.556;10.956;2023-04-30T05:06:09;98720.53;;;9.62;100.00
20156;BME280;10238;49.556;10.956;2023-04-30T05:08:58;98722.91;;;9.65;100.00
20156;BME280;10238;49.556;10.956;2023-04-30T05:11:46;98731.59;;;9.67;100.00
20156;BME280;10238;49.556;10.956;2023-04-30T05:14:35;98727.66;;;9.71;100.00
20156;BME280;10238;49.556;10.956;2023-04-30T05:17:23;98734.38;;;9.75;100.00
20156;BME280;10238;49.556;10.956;2023-04-30T05:20:12;98731.56;;;9.77;100.00
20156;BME280;10238;49.556;10.956;2023-04-30T05:23:02;98730.19;;;9.82;100.00
20156;BME280;10238;49.556;10.956;2023-04-30T05:25:52;98740.66;;;9.84;100.00
20156;BME280;10238;49.556;10.956;2023-04-30T05:28:43;98743.88;;;9.87;100.00
20156;BME280;10238;49.556;10.956;2023-04-30T05:31:31;98747.50;;;9.86;100.00
20156;BME280;10238;49.556;10.956;2023-04-30T05:34:19;98747.50;;;9.86;100.00
20156;BME280;10238;49.556;10.956;2023-04-30T05:37:07;98745.56;;;9.88;100.00
20156;BME280;10238;49.556;10.956;2023-04-30T05:39:56;98743.59;;;9.90;100.00
20156;BME280;10238;49.556;10.956;2023-04-30T05:42:45;98748.22;;;9.88;100.00
20156;BME280;10238;49.556;10.956;2023-04-30T05:45:33;98751.56;;;9.90;100.00
20156;BME280;10238;49.556;10.956;2023-04-30T05:48:21;98747.78;;;9.93;100.00
20156;BME280;10238;49.556;10.956;2023-04-30T05:51:09;98760.63;;;9.97;100.00
20156;BME280;10238;49.556;10.956;2023-04-30T05:53:57;98751.41;;;10.01;100.00
20156;BME280;10238;49.556;10.956;2023-04-30T05:56:46;98759.81;;;10.06;100.00
20156;BME280;10238;49.556;10.956;2023-04-30T05:59:35;98751.16;;;10.14;100.00
20156;BME280;10238;49.556;10.956;2023-04-30T06:02:23;98755.75;;;10.21;100.00
20156;BME280;10238;49.556;10.956;2023-04-30T06:05:12;98747.22;;;10.27;100.00
20156;BME280;10238;49.556;10.956;2023-04-30T06:08:02;98739.19;;;10.37;100.00
20156;BME280;10238;49.556;10.956;2023-04-30T06:10:50;98746.47;;;10.44;100.00
20156;BME280;10238;49.556;10.956;2023-04-30T06:13:38;98745.19;;;10.48;100.00
20156;BME280;10238;49.556;10.956;2023-04-30T06:16:28;98747.41;;;10.53;100.00
20156;BME280;10238;49.556;10.956;2023-04-30T06:19:16;98749.63;;;10.57;100.00
20156;BME280;10238;49.556;10.956;2023-04-30T06:22:07;98751.72;;;10.63;100.00
20156;BME280;10238;49.556;10.956;2023-04-30T06:24:59;98741.50;;;10.68;100.00
20156;BME280;10238;49.556;10.956;2023-04-30T06:27:48;98751.25;;;10.77;100.00
20156;BME280;10238;49.556;10.956;2023-04-30T06:30:40;98739.03;;;10.84;100.00
20156;BME280;10238;49.556;10.956;2023-04-30T06:33:32;98741.66;;;10.94;100.00
20156;BME280;10238;49.556;10.956;2023-04-30T06:36:20;98743.41;;;11.03;100.00
20156;BME280;10238;49.556;10.956;2023-04-30T06:39:08;98744.91;;;11.15;100.00
20156;BME280;10238;49.556;10.956;2023-04-30T06:41:57;98739.38;;;11.26;100.00
20156;BME280;10238;49.556;10.956;2023-04-30T06:44:46;98743.66;;;11.37;100.00
20156;BME280;10238;49.556;10.956;2023-04-30T06:47:35;98732.78;;;11.48;100.00
20156;BME280;10238;49.556;10.956;2023-04-30T06:50:25;98725.28;;;11.61;100.00
20156;BME280;10238;49.556;10.956;2023-04-30T06:53:14;98731.06;;;11.74;100.00
20156;BME280;10238;49.556;10.956;2023-04-30T06:56:02;98726.19;;;11.87;100.00
20156;BME280;10238;49.556;10.956;2023-04-30T06:58:50;98725.19;;;12.05;100.00
20156;BME280;10238;49.556;10.956;2023-04-30T07:01:39;98732.81;;;12.26;100.00
20156;BME280;10238;49.556;10.956;2023-04-30T07:04:29;98727.66;;;12.50;100.00
20156;BME280;10238;49.556;10.956;2023-04-30T07:07:28;98735.63;;;12.75;100.00
20156;BME280;10238;49.556;10.956;2023-04-30T07:10:46;98728.59;;;13.00;100.00
20156;BME280;10238;49.556;10.956;2023-04-30T07:13:48;98728.53;;;13.26;100.00
20156;BME280;10238;49.556;10.956;2023-04-30T07:16:40;98734.09;;;13.48;100.00
20156;BME280;10238;49.556;10.956;2023-04-30T07:19:35;98721.47;;;13.74;100.00
20156;BME280;10238;49.556;10.956;2023-04-30T07:22:24;98726.16;;;13.96;100.00
20156;BME280;10238;49.556;10.956;2023-04-30T07:25:13;98727.13;;;14.11;100.00
20156;BME280;10238;49.556;10.956;2023-04-30T07:28:02;98725.44;;;14.58;100.00
20156;BME280;10238;49.556;10.956;2023-04-30T07:30:51;98724.00;;;14.94;100.00
20156;BME280;10238;49.556;10.956;2023-04-30T07:33:42;98718.09;;;15.46;100.00
20156;BME280;10238;49.556;10.956;2023-04-30T07:37:03;98709.19;;;15.76;100.00
20156;BME280;10238;49.556;10.956;2023-04-30T07:40:45;98708.44;;;16.27;100.00
20156;BME280;10238;49.556;10.956;2023-04-30T07:47:09;98704.59;;;17.02;100.00
20156;BME280;10238;49.556;10.956;2023-04-30T07:50:14;98698.78;;;17.13;100.00
20156;BME280;10238;49.556;10.956;2023-04-30T07:53:17;98695.38;;;17.40;100.00
20156;BME280;10238;49.556;10.956;2023-04-30T07:56:24;98686.50;;;18.24;100.00
20156;BME280;10238;49.556;10.956;2023-04-30T08:03:25;98684.81;;;19.53;100.00
20156;BME280;10238;49.556;10.956;2023-04-30T08:06:17;98673.47;;;19.90;93.60
20156;BME280;10238;49.556;10.956;2023-04-30T08:09:12;98680.75;;;20.09;88.74
20156;BME280;10238;49.556;10.956;2023-04-30T08:12:05;98668.94;;;20.55;87.94
20156;BME280;10238;49.556;10.956;2023-04-30T08:14:59;98678.41;;;20.84;83.66
20156;BME280;10238;49.556;10.956;2023-04-30T08:17:48;98671.44;;;20.18;77.99
20156;BME280;10238;49.556;10.956;2023-04-30T08:20:37;98665.19;;;20.50;84.58
20156;BME280;10238;49.556;10.956;2023-04-30T08:23:25;98663.50;;;21.39;81.54
20156;BME280;10238;49.556;10.956;2023-04-30T08:26:13;98654.88;;;21.48;78.28
20156;BME280;10238;49.556;10.956;2023-04-30T08:29:02;98655.91;;;21.91;77.92
20156;BME280;10238;49.556;10.956;2023-04-30T08:31:51;98652.88;;;22.06;73.86
20156;BME280;10238;49.556;10.956;2023-04-30T08:34:39;98649.91;;;22.38;74.45
20156;BME280;10238;49.556;10.956;2023-04-30T08:37:27;98643.94;;;22.72;72.62
20156;BME280;10238;49.556;10.956;2023-04-30T08:40:15;98645.91;;;23.01;70.46
20156;BME280;10238;49.556;10.956;2023-04-30T08:43:05;98639.41;;;23.20;67.13
20156;BME280;10238;49.556;10.956;2023-04-30T08:45:55;98639.53;;;23.32;65.86
20156;BME280;10238;49.556;10.956;2023-04-30T08:48:43;98638.53;;;23.26;66.23
20156;BME280;10238;49.556;10.956;2023-04-30T08:51:36;98645.06;;;23.19;67.87
20156;BME280;10238;49.556;10.956;2023-04-30T08:54:25;98643.22;;;23.38;64.89
20156;BME280;10238;49.556;10.956;2023-04-30T08:57:15;98645.88;;;23.26;63.85
20156;BME280;10238;49.556;10.956;2023-04-30T09:00:03;98651.34;;;23.19;64.52
20156;BME280;10238;49.556;10.956;2023-04-30T09:02:54;98651.03;;;23.09;63.65
20156;BME280;10238;49.556;10.956;2023-04-30T09:05:42;98649.91;;;22.99;63.76
20156;BME280;10238;49.556;10.956;2023-04-30T09:08:43;98652.50;;;22.94;61.25
20156;BME280;10238;49.556;10.956;2023-04-30T09:11:33;98653.91;;;22.78;63.40
20156;BME280;10238;49.556;10.956;2023-04-30T09:14:24;98648.56;;;22.72;64.06
20156;BME280;10238;49.556;10.956;2023-04-30T09:17:21;98640.78;;;22.57;63.91
20156;BME280;10238;49.556;10.956;2023-04-30T09:20:17;98655.91;;;22.40;63.53
20156;BME280;10238;49.556;10.956;2023-04-30T09:28:39;98648.19;;;22.19;66.99
20156;BME280;10238;49.556;10.956;2023-04-30T09:31:52;98647.88;;;22.09;68.70
20156;BME280;10238;49.556;10.956;2023-04-30T09:35:32;98642.69;;;21.77;64.64
20156;BME280;10238;49.556;10.956;2023-04-30T09:38:26;98648.09;;;21.70;65.31
20156;BME280;10238;49.556;10.956;2023-04-30T09:41:23;98648.03;;;21.52;61.25
20156;BME280;10238;49.556;10.956;2023-04-30T09:44:26;98656.44;;;21.31;60.29
20156;BME280;10238;49.556;10.956;2023-04-30T09:47:17;98651.50;;;21.59;62.60
20156;BME280;10238;49.556;10.956;2023-04-30T09:50:06;98641.03;;;21.69;60.79
20156;BME280;10238;49.556;10.956;2023-04-30T09:53:26;98643.19;;;21.61;63.57
20156;BME280;10238;49.556;10.956;2023-04-30T09:56:32;98649.25;;;21.12;56.33
20156;BME280;10238;49.556;10.956;2023-04-30T09:59:28;98641.78;;;21.45;55.46
20156;BME280;10238;49.556;10.956;2023-04-30T10:02:18;98642.34;;;21.60;57.97
20156;BME280;10238;49.556;10.956;2023-04-30T10:05:08;98628.13;;;22.02;59.90
20156;BME280;10238;49.556;10.956;2023-04-30T10:07:57;98625.66;;;22.25;59.64
20156;BME280;10238;49.556;10.956;2023-04-30T10:13:41;98619.94;;;22.33;58.51
20156;BME280;10238;49.556;10.956;2023-04-30T10:16:36;98620.00;;;22.51;60.65
20156;BME280;10238;49.556;10.956;2023-04-30T10:19:30;98608.28;;;22.57;61.88
20156;BME280;10238;49.556;10.956;2023-04-30T10:22:20;98607.59;;;22.62;60.43
20156;BME280;10238;49.556;10.956;2023-04-30T10:25:09;98606.69;;;22.50;63.01
20156;BME280;10238;49.556;10.956;2023-04-30T10:28:00;98609.94;;;22.34;60.89
20156;BME280;10238;49.556;10.956;2023-04-30T10:30:51;98603.31;;;22.54;58.08
20156;BME280;10238;49.556;10.956;2023-04-30T10:34:00;98601.50;;;22.24;57.36
20156;BME280;10238;49.556;10.956;2023-04-30T10:40:15;98594.09;;;22.55;59.10
20156;BME280;10238;49.556;10.956;2023-04-30T10:43:07;98593.44;;;22.60;55.14
20156;BME280;10238;49.556;10.956;2023-04-30T10:46:03;98587.72;;;22.86;60.13
20156;BME280;10238;49.556;10.956;2023-04-30T10:48:53;98598.47;;;22.74;53.10
20156;BME280;10238;49.556;10.956;2023-04-30T10:51:46;98587.69;;;23.04;55.39
20156;BME280;10238;49.556;10.956;2023-04-30T10:54:35;98590.63;;;23.02;59.45
20156;BME280;10238;49.556;10.956;2023-04-30T10:57:26;98587.44;;;23.23;57.26
20156;BME280;10238;49.556;10.956;2023-04-30T11:00:25;98587.00;;;23.26;54.55
20156;BME280;10238;49.556;10.956;2023-04-30T11:03:13;98580.31;;;23.29;58.56
20156;BME280;10238;49.556;10.956;2023-04-30T11:06:08;98576.25;;;23.50;56.27
20156;BME280;10238;49.556;10.956;2023-04-30T11:09:03;98567.28;;;23.61;51.58
20156;BME280;10238;49.556;10.956;2023-04-30T11:12:11;98578.56;;;23.76;59.89
20156;BME280;10238;49.556;10.956;2023-04-30T11:15:03;98570.25;;;23.71;51.64
20156;BME280;10238;49.556;10.956;2023-04-30T11:17:56;98574.19;;;23.34;47.16
20156;BME280;10238;49.556;10.956;2023-04-30T11:20:49;98566.91;;;22.98;46.29
20156;BME280;10238;49.556;10.956;2023-04-30T11:23:40;98559.00;;;22.78;46.17
20156;BME280;10238;49.556;10.956;2023-04-30T11:26:29;98558.25;;;22.89;47.66
20156;BME280;10238;49.556;10.956;2023-04-30T11:29:38;98548.00;;;23.39;55.22
20156;BME280;10238;49.556;10.956;2023-04-30T11:32:31;98558.63;;;23.82;56.06
20156;BME280;10238;49.556;10.956;2023-04-30T11:35:20;98548.41;;;24.18;53.27
20156;BME280;10238;49.556;10.956;2023-04-30T11:38:09;98543.47;;;23.63;50.88
20156;BME280;10238;49.556;10.956;2023-04-30T11:40:59;98531.81;;;24.66;56.90
20156;BME280;10238;49.556;10.956;2023-04-30T11:43:47;98529.22;;;24.99;46.32
20156;BME280;10238;49.556;10.956;2023-04-30T11:46:39;98533.50;;;25.23;50.79
20156;BME280;10238;49.556;10.956;2023-04-30T11:49:32;98525.16;;;24.85;48.33
20156;BME280;10238;49.556;10.956;2023-04-30T11:52:25;98538.34;;;24.42;42.23
20156;BME280;10238;49.556;10.956;2023-04-30T11:55:16;98525.22;;;25.01;48.77
20156;BME280;10238;49.556;10.956;2023-04-30T11:58:09;98524.38;;;25.01;50.07
20156;BME280;10238;49.556;10.956;2023-04-30T12:00:59;98519.91;;;25.51;44.60
20156;BME280;10238;49.556;10.956;2023-04-30T12:03:49;98525.63;;;25.66;47.26
20156;BME280;10238;49.556;10.956;2023-04-30T12:06:39;98511.59;;;25.91;50.72
20156;BME280;10238;49.556;10.956;2023-04-30T12:09:31;98521.16;;;25.60;47.24
20156;BME280;10238;49.556;10.956;2023-04-30T12:12:26;98507.75;;;26.25;49.45
20156;BME280;10238;49.556;10.956;2023-04-30T12:15:16;98516.16;;;26.40;48.57
20156;BME280;10238;49.556;10.956;2023-04-30T12:18:11;98508.69;;;26.68;50.97
20156;BME280;10238;49.556;10.956;2023-04-30T12:21:03;98500.38;;;26.80;47.39
20156;BME280;10238;49.556;10.956;2023-04-30T12:24:14;98504.25;;;27.10;49.48
20156;BME280;10238;49.556;10.956;2023-04-30T12:27:09;98508.53;;;27.01;46.88
20156;BME280;10238;49.556;10.956;2023-04-30T12:30:02;98506.94;;;27.05;49.30
20156;BME280;10238;49.556;10.956;2023-04-30T12:33:03;98499.47;;;26.96;47.52
20156;BME280;10238;49.556;10.956;2023-04-30T12:35:52;98507.09;;;27.20;47.11
20156;BME280;10238;49.556;10.956;2023-04-30T12:38:43;98503.28;;;27.21;45.80
20156;BME280;10238;49.556;10.956;2023-04-30T12:41:34;98493.13;;;27.39;46.17
20156;BME280;10238;49.556;10.956;2023-04-30T12:44:25;98494.59;;;26.76;39.59
20156;BME280;10238;49.556;10.956;2023-04-30T12:47:14;98497.22;;;25.95;39.12
20156;BME280;10238;49.556;10.956;2023-04-30T12:50:05;98495.91;;;26.14;45.56
20156;BME280;10238;49.556;10.956;2023-04-30T12:53:01;98502.22;;;25.37;38.21
20156;BME280;10238;49.556;10.956;2023-04-30T12:56:09;98489.97;;;26.17;41.68
20156;BME280;10238;49.556;10.956;2023-04-30T12:58:57;98477.31;;;26.49;40.50
20156;BME280;10238;49.556;10.956;2023-04-30T13:01:47;98481.69;;;26.12;39.26
20156;BME280;10238;49.556;10.956;2023-04-30T13:04:35;98483.50;;;26.83;45.48
20156;BME280;10238;49.556;10.956;2023-04-30T13:07:36;98477.03;;;27.74;45.12
20156;BME280;10238;49.556;10.956;2023-04-30T13:10:26;98465.72;;;28.38;43.65
20156;BME280;10238;49.556;10.956;2023-04-30T13:13:16;98462.34;;;28.68;45.93
20156;BME280;10238;49.556;10.956;2023-04-30T13:16:06;98470.44;;;28.06;39.67
20156;BME280;10238;49.556;10.956;2023-04-30T13:22:34;98451.00;;;29.16;45.06
20156;BME280;10238;49.556;10.956;2023-04-30T13:25:23;98451.00;;;29.26;39.71
20156;BME280;10238;49.556;10.956;2023-04-30T13:28:14;98444.19;;;29.49;42.23
20156;BME280;10238;49.556;10.956;2023-04-30T13:31:02;98444.19;;;29.39;41.68
20156;BME280;10238;49.556;10.956;2023-04-30T13:33:50;98440.94;;;29.67;44.63
20156;BME280;10238;49.556;10.956;2023-04-30T13:36:41;98435.13;;;29.23;40.07
20156;BME280;10238;49.556;10.956;2023-04-30T13:39:29;98442.03;;;29.71;41.25
20156;BME280;10238;49.556;10.956;2023-04-30T13:42:17;98437.31;;;30.01;40.88
20156;BME280;10238;49.556;10.956;2023-04-30T13:45:06;98429.66;;;30.03;39.72
20156;BME280;10238;49.556;10.956;2023-04-30T13:47:54;98430.75;;;29.92;42.68
20156;BME280;10238;49.556;10.956;2023-04-30T13:50:42;98433.78;;;29.76;38.54
20156;BME280;10238;49.556;10.956;2023-04-30T13:53:31;98426.94;;;29.88;41.40
20156;BME280;10238;49.556;10.956;2023-04-30T13:56:19;98422.22;;;30.04;41.28
20156;BME280;10238;49.556;10.956;2023-04-30T13:59:07;98423.09;;;29.94;38.11
20156;BME280;10238;49.556;10.956;2023-04-30T14:01:56;98428.00;;;30.07;44.44
20156;BME280;10238;49.556;10.956;2023-04-30T14:04:44;98419.47;;;30.04;44.22
20156;BME280;10238;49.556;10.956;2023-04-30T14:07:50;98419.78;;;29.92;42.97
20156;BME280;10238;49.556;10.956;2023-04-30T14:10:40;98411.31;;;29.89;41.80
20156;BME280;10238;49.556;10.956;2023-04-30T14:13:28;98408.31;;;29.75;36.95
20156;BME280;10238;49.556;10.956;2023-04-30T14:16:16;98400.09;;;29.30;34.06
20156;BME280;10238;49.556;10.956;2023-04-30T14:19:06;98394.88;;;29.13;42.44
20156;BME280;10238;49.556;10.956;2023-04-30T14:21:54;98396.25;;;29.56;42.93
20156;BME280;10238;49.556;10.956;2023-04-30T14:24:42;98395.44;;;29.26;40.33
20156;BME280;10238;49.556;10.956;2023-04-30T14:27:31;98391.19;;;28.63;35.72
20156;BME280;10238;49.556;10.956;2023-04-30T14:30:19;98392.91;;;29.04;42.08
20156;BME280;10238;49.556;10.956;2023-04-30T14:33:07;98392.41;;;29.37;40.25
20156;BME280;10238;49.556;10.956;2023-04-30T14:35:57;98379.81;;;29.71;40.88
20156;BME280;10238;49.556;10.956;2023-04-30T14:38:46;98382.75;;;28.94;38.28
20156;BME280;10238;49.556;10.956;2023-04-30T14:41:35;98377.91;;;29.32;43.94
20156;BME280;10238;49.556;10.956;2023-04-30T14:44:24;98373.22;;;29.22;34.57
20156;BME280;10238;49.556;10.956;2023-04-30T14:47:12;98371.88;;;29.35;42.54
20156;BME280;10238;49.556;10.956;2023-04-30T14:50:00;98368.81;;;29.86;43.56
20156;BME280;10238;49.556;10.956;2023-04-30T14:52:48;98365.53;;;29.74;41.43
20156;BME280;10238;49.556;10.956;2023-04-30T14:55:37;98359.81;;;29.71;41.01
20156;BME280;10238;49.556;10.956;2023-04-30T14:58:25;98355.06;;;29.96;42.78
20156;BME280;10238;49.556;10.956;2023-04-30T15:01:16;98357.22;;;30.19;43.08
20156;BME280;10238;49.556;10.956;2023-04-30T15:04:04;98352.34;;;29.91;38.46
20156;BME280;10238;49.556;10.956;2023-04-30T15:06:52;98347.91;;;30.10;39.31
20156;BME280;10238;49.556;10.956;2023-04-30T15:09:41;98351.72;;;30.09;39.74
20156;BME280;10238;49.556;10.956;2023-04-30T15:12:30;98345.75;;;29.97;35.67
20156;BME280;10238;49.556;10.956;2023-04-30T15:15:18;98342.09;;;30.17;40.20